Nearby METAR Reports

 

EGTE - Exeter Airport, United Kingdom
Distance from station: S 19km
Updated: 28/11/2021 17:20
Mostly cloudy
Mostly cloudy
 Wind from varies
Wind: varies 4 km/h
Temperature: 6°C
Dew Point: 2°C
Humidity: 76%
Barometer: 1008 hPa
Clouds: Mostly cloudy
Visibility: 10 km
Cloud details: Few Clouds 792 m
Mostly cloudy 1158 m
2021/11/28 17:20 EGTE 281720Z VRB02KT 9999 FEW026 BKN038 06/02 Q1008
EGDY - Yeovilton (navy), United Kingdom
Distance from station: ENE 55km
Updated: 28/11/2021 16:50
Partly cloudy
Partly cloudy
 Wind from SSW
Wind: SSW 6 km/h
Temperature: 3°C
Dew Point: 0°C
Humidity: 81%
Barometer: 1007 hPa
Clouds: Partly cloudy
Visibility: 10 km
Cloud details: Partly cloudy 1829 m
2021/11/28 16:50 EGDY 281650Z AUTO 21003KT 9999 SCT060/// 03/00 Q1007
 
EGFF - Cardiff-Wales Ar, United Kingdom
Distance from station: N 56km
Updated: 28/11/2021 17:20
Mostly cloudy
Mostly cloudy
 Wind from WNW
Wind: WNW 19 km/h
Temperature: 6°C
Wind Chill: 3°C
Dew Point: 4°C
Humidity: 87%
Barometer: 1007 hPa
Clouds: Mostly cloudy
Visibility: 10 km
Cloud details: Partly cloudy 671 m
Mostly cloudy 914 m
2021/11/28 17:20 EGFF 281720Z AUTO 29010KT 9999 SCT022 BKN030 06/04 Q1007
EGDX - St Athan Raf, United Kingdom
Distance from station: N 58km
Updated: 01/04/2019 13:50
NOT Current
Clear
Clear
 Wind from E
Wind: E 15 km/h
Temperature: 11°C
Dew Point: 5°C
Humidity: 67%
Barometer: 1019 hPa
Clouds: Clear
Visibility: 10 km
2019/04/01 12:50 EGDX 011250Z AUTO 10008KT 9999 NCD 11/05 Q1019
 
EGGD - Bristol/Lulsgate, United Kingdom
Distance from station: NE 71km
Updated: 28/11/2021 17:20
Mostly cloudy
Mostly cloudy
 Wind from W
Wind: W 19 km/h
Temperature: 5°C
Wind Chill: 1°C
Dew Point: 2°C
Humidity: 81%
Barometer: 1006 hPa
Clouds: Mostly cloudy
Visibility: 10 km
Cloud details: Few Clouds 671 m
Mostly cloudy 884 m
Mostly cloudy 1067 m
2021/11/28 17:20 EGGD 281720Z AUTO 27010KT 9999 FEW022 BKN029 BKN035 05/02 Q1006